KLUDKDTO

Guest
Details From KLUD - DECATUR MUNI
To KDTO - DENTON MUNI
Flight Number -
Tags generated
Created
Modified
Stats Distance 19 nm / 36 km
Max Altitude 0 ft / 0 m
Waypoints 2
Social Downloads 0
Likes 0
Share VATSIM

Download

Looking for another format? Having issues loading an existing format? Contact us
Advertisement - Login to hide

Notes

Basic altitude profile: - Ascent Rate: 600ft/min - Ascent Speed: 80kts - Cruise Altitude: 4000ft - Cruise Speed: 420kts - Descent Rate: 1500ft/min - Descent Speed: 250kts Options: - Use NATs: yes - Use PACOTS: yes - Use low airways: yes - Use high airways: yes

Route

KLUD KDTO

ID Type Via Altitude Latitude Longitude Leg Dist Tot Dist Heading (true) Name
O KLUD APT - 0 ft / 0 m 33.25465˚ -97.58055˚ - 0 nm - DECATUR MUNI
O KDTO APT - 0 ft / 0 m 33.20072˚ -97.19798˚ 19 nm 19 nm 99° / 100° DENTON MUNI

Altitude Profile

Advertisement - Login to hide

KLUD

Details ICAO KLUD
Name DECATUR MUNI
Region United States
Timezone America/Chicago (UTC-6.0)
Stats Elevation 1,047 ft / 319 m (AMSL)
Location 33.254650° -97.580553°
Runways 1
Magnetic Variation 3.759° E

METAR

KLUD 161515Z AUTO 18007KT 10SM CLR 08/M03 A3008 RMK AO2 T00771033

Decode

TAF

Not found

Departure Runways

ID Width Length Bearing (true) Bearing (mag) Surface Threshold Offset Overrun Length
17 60 ft / 18 m 3,910 ft / 1,192 m 172.47° 168.71° Asphalt 0 ft / 0 m 0 ft / 0 m
35 60 ft / 18 m 3,910 ft / 1,192 m 352.48° 348.72° Asphalt 500 ft / 152 m 0 ft / 0 m

KDTO

Details ICAO KDTO
Name DENTON MUNI
Region United States
Timezone America/Chicago (UTC-6.0)
Stats Elevation 642 ft / 196 m (AMSL)
Location 33.200722° -97.197976°
Runways 1
Magnetic Variation 3.529° E

METAR

KDTO 161453Z 11003KT 10SM CLR 04/M01 A3012 RMK AO2 SLP202 T00391006 53001

Decode

TAF

Not found

Destination Runways

ID Width Length Bearing (true) Bearing (mag) Surface Threshold Offset Overrun Length
17 150 ft / 46 m 6,016 ft / 1,834 m 181.06° 177.53° Asphalt 0 ft / 0 m 0 ft / 0 m
35 150 ft / 46 m 6,016 ft / 1,834 m 1.06° 357.53° Asphalt 0 ft / 0 m 0 ft / 0 m

Approach Navaids

Runway Type Ident Frequency Range Bearing (true) Bearing (mag) Slope Elevation
17 Localiser IDTO 109.10 MHz 18 nm / 33 km 181.06° 177.53° - 642 ft / 196 m (AMSL)
17 Glidescope IDTO 109.10 MHz 10 nm / 19 km 181.06° 177.53° 3.00° 642 ft / 196 m (AMSL)

Popular Alternatives